Detall de PIREP

Printer-friendly versionPDF version

[2011/11/05 19:35:00]
Flight IATA:CT1006
Pilot Number:026
Company ICAO:CAT
Aircraft Type:DC85/A
PAX:132
Departing Airport: LTBA
Destination Airport: LGAV
Alternate Airport:LGTS
Online: VATSIM
Route:BIG UN604 KEPIR
Flight Level:F340
No Slew and time accel
No pause
Crash detect
Detect pilot in Cockpit between each 30 and 45 minutes
19:35 Zero fuel Weight: 179555 Lbs, Fuel Weight: 30452 Lbs
19:35 VATSIM:LTBA 051850Z 06007KT 020V110 CAVOK 12/06 Q1025 NOSIG
19:35 VATSIM:LGAV 051850Z VRB03KT 9999 FEW025 12/06 Q1023 NOSIG
19:35 VOICE CATALONIAN / ALMOGAVERS ROUTE
19:47 Parking Brakes off
19:55 Take-off
19:55 Take off Weight: 208897 Lbs
19:55 Wind: 025º @ 007 Knots Heading: 000º
19:55 POS N40º 59´ 10´´ E028º 48´ 32´´
19:55 Gear Up: 162 Knots
19:55 Flaps:2 at 162 Knots
19:56 Flaps:1 at 186 Knots
19:58 Flaps:0 at 179 Knots
20:10 Wind:023º@019 Knots Heading: 233º Ground Speed: 402 Knots Altitude 25462 ft
20:20 TOC
20:20 Fuel Weight: 23296 Lb
20:25 Wind:348º@009 Knots Heading: 234º Ground Speed: 442 Knots Altitude 34222 ft
20:26 TOD
20:26 Fuel Weight: 22166 Lb
20:40 Wind:006º@022 Knots Heading: 203º Ground Speed: 422 Knots Altitude 16528 ft
20:53 Gear Down: 160 Knots
20:54 Flaps:1 at 147 Knots
20:55 Wind:004º@001 Knots Heading: 038º Ground Speed: 156 Knots Altitude 2522 ft
20:55 Flaps:2 at 152 Knots
20:56 Flaps:3 at 151 Knots
20:56 Flaps:4 at 145 Knots
20:57 Flaps:5 at 130 Knots
20:58 TouchDown:Rate -428 ft/min Speed: 122 Knots
20:58 VATSIM:LGAV 052020Z VRB01KT 9999 FEW030 11/06 Q1023 NOSIG
20:58 Land
20:58 Wind:004º@001 Knots
20:58 Heading: 036º
20:58 Flight Duration: 01:03
20:58 Landing Weight: 197747 Lbs
20:58 POS N37º 55´ 52´´ E023º 55´ 40´´
21:05 Parking brakes on
21:05 Block to Block Duration: 01:18
21:05 FinalFuel: 17566 Lbls
21:05 Spent Fuel: 12885 Lbls
21:05 Flight Length: 281 NM
21:05 TOD Land Length: 180 NM

Exportar CSV

Powered by Drupal - Modified by Danger4k